Time;durP1;ratioP1;P1;durP2;ratioP2;P2;SDS_P1;SDS_P2;PMS_P1;PMS_P2;Temp;Humidity;BMP_temperature;BMP_pressure;BME280_temperature;BME280_humidity;BME280_pressure;Samples;Min_cycle;Max_cycle;Signal;HPM_P1;HPM_P2
2022/02/19 00:00:10;;;;;;;11.03;3.20;;;7.20;1.00;;;;;;5022758;28;20193;-89
2022/02/19 00:02:35;;;;;;;10.67;3.03;;;7.20;1.00;;;;;;5021400;28;20182;-90
2022/02/19 00:05:06;;;;;;;14.00;3.50;;;7.20;1.00;;;;;;5020796;28;20177;-91
2022/02/19 00:07:35;;;;;;;13.87;3.30;;;7.20;1.00;;;;;;5024753;28;20191;-92
2022/02/19 00:10:03;;;;;;;13.83;2.77;;;7.20;1.00;;;;;;5024875;28;20170;-90
2022/02/19 00:12:29;;;;;;;14.03;3.17;;;7.20;1.00;;;;;;5022788;28;20202;-90
2022/02/19 00:14:58;;;;;;;9.80;2.70;;;7.20;1.00;;;;;;5007545;28;20697;-90
2022/02/19 00:17:28;;;;;;;7.73;2.00;;;7.20;1.00;;;;;;5006252;28;20600;-93
2022/02/19 00:19:55;;;;;;;12.77;2.40;;;7.20;1.00;;;;;;5023069;28;20174;-90
2022/02/19 00:22:21;;;;;;;8.80;2.30;;;7.20;1.00;;;;;;5023234;28;20170;-91
2022/02/19 00:24:47;;;;;;;8.77;2.23;;;7.20;1.00;;;;;;5026952;28;20209;-91
2022/02/19 00:27:13;;;;;;;10.73;2.67;;;7.10;1.00;;;;;;5036169;28;20225;-89
2022/02/19 00:29:40;;;;;;;9.53;1.90;;;7.20;1.00;;;;;;5038363;28;20163;-88
2022/02/19 00:32:07;;;;;;;7.03;2.23;;;7.10;1.00;;;;;;5038322;28;20170;-89
2022/02/19 00:34:33;;;;;;;7.77;2.20;;;7.10;1.00;;;;;;5039187;28;20178;-88
2022/02/19 00:37:00;;;;;;;14.07;2.80;;;7.10;1.00;;;;;;5035092;28;20223;-89
2022/02/19 00:39:29;;;;;;;5.43;1.87;;;7.10;1.00;;;;;;5031136;28;20161;-89
2022/02/19 00:42:15;;;;;;;9.97;2.80;;;7.00;1.00;;;;;;5034370;28;20185;-90
2022/02/19 00:45:22;;;;;;;7.17;2.57;;;7.00;1.00;;;;;;5031499;28;20170;-90
2022/02/19 00:47:47;;;;;;;5.83;2.13;;;7.00;1.00;;;;;;5033281;28;20183;-90
2022/02/19 00:50:14;;;;;;;6.70;2.30;;;7.00;1.00;;;;;;5032498;28;20238;-90
2022/02/19 00:52:40;;;;;;;8.60;2.30;;;7.00;1.00;;;;;;5034334;28;20170;-91
2022/02/19 00:55:07;;;;;;;8.37;2.43;;;7.10;1.00;;;;;;5033212;28;20178;-88
2022/02/19 00:57:40;;;;;;;10.50;2.40;;;7.10;1.00;;;;;;5036806;28;20182;-89
2022/02/19 01:00:08;;;;;;;5.37;2.00;;;7.00;1.00;;;;;;5036356;28;20213;-89
2022/02/19 01:02:37;;;;;;;6.23;1.90;;;7.00;1.00;;;;;;5036079;28;20190;-87
2022/02/19 01:05:04;;;;;;;6.43;2.07;;;7.00;1.00;;;;;;5037047;28;20166;-89
2022/02/19 01:07:30;;;;;;;6.40;1.87;;;6.90;1.00;;;;;;5019467;28;20186;-89
2022/02/19 01:09:56;;;;;;;10.27;1.87;;;7.10;1.00;;;;;;5037647;28;20183;-89
2022/02/19 01:12:48;;;;;;;5.87;1.90;;;6.90;1.00;;;;;;5030960;28;20214;-92
2022/02/19 01:15:20;;;;;;;7.53;1.83;;;6.80;1.00;;;;;;5015431;28;20170;-90
2022/02/19 01:17:46;;;;;;;5.97;1.60;;;6.70;1.00;;;;;;5027464;28;20175;-90
2022/02/19 01:20:13;;;;;;;9.37;2.20;;;6.60;1.00;;;;;;5028718;28;20265;-88
2022/02/19 01:22:45;;;;;;;5.83;2.00;;;6.70;1.00;;;;;;5031743;28;20206;-91
2022/02/19 01:25:12;;;;;;;4.03;1.80;;;6.60;1.00;;;;;;5031579;28;20198;-90
2022/02/19 01:27:41;;;;;;;9.10;2.63;;;6.60;1.00;;;;;;5031131;28;20244;-91
2022/02/19 01:30:11;;;;;;;5.70;1.60;;;6.60;1.00;;;;;;5008348;28;20574;-91
2022/02/19 01:32:46;;;;;;;8.83;1.53;;;6.60;1.00;;;;;;5021785;28;20213;-90
2022/02/19 01:35:12;;;;;;;7.27;1.90;;;6.60;1.00;;;;;;5023123;28;20166;-87
2022/02/19 01:37:41;;;;;;;7.53;1.70;;;6.60;1.00;;;;;;5016863;28;20178;-89
2022/02/19 01:40:07;;;;;;;5.97;1.70;;;6.60;1.00;;;;;;5017804;28;20688;-88
2022/02/19 01:42:39;;;;;;;7.33;1.50;;;6.60;1.00;;;;;;5021240;28;20172;-92
2022/02/19 01:45:09;;;;;;;5.33;1.77;;;6.50;1.00;;;;;;5019647;28;20174;-91
2022/02/19 01:47:39;;;;;;;3.13;1.40;;;6.50;1.00;;;;;;5031433;28;20165;-90
2022/02/19 01:50:09;;;;;;;6.43;2.20;;;6.50;1.00;;;;;;5022983;28;20197;-87
2022/02/19 01:52:35;;;;;;;10.93;2.27;;;6.40;1.00;;;;;;5018858;28;20185;-87
2022/02/19 01:55:02;;;;;;;6.97;1.90;;;6.40;1.00;;;;;;5016540;28;20209;-88
2022/02/19 01:57:28;;;;;;;6.53;1.60;;;6.40;1.00;;;;;;5021418;28;20182;-87
2022/02/19 01:59:54;;;;;;;7.93;1.70;;;6.40;1.00;;;;;;5021578;28;20174;-88
2022/02/19 02:02:20;;;;;;;6.20;1.83;;;6.60;1.00;;;;;;5022613;28;20180;-88
2022/02/19 02:04:45;;;;;;;8.47;2.10;;;6.40;1.00;;;;;;5022522;28;20259;-90
2022/02/19 02:07:11;;;;;;;9.10;2.10;;;6.40;1.00;;;;;;5028204;28;20245;-90
2022/02/19 02:09:38;;;;;;;4.63;1.23;;;6.30;1.00;;;;;;5029648;28;20185;-90
2022/02/19 02:12:06;;;;;;;6.57;1.97;;;6.30;1.00;;;;;;5036419;28;20185;-87
2022/02/19 02:14:42;;;;;;;4.87;1.60;;;6.30;1.00;;;;;;5038278;28;20245;-88
2022/02/19 02:17:09;;;;;;;4.17;1.70;;;6.30;1.00;;;;;;5041419;28;20188;-86
2022/02/19 02:19:39;;;;;;;8.13;1.60;;;6.30;1.00;;;;;;5041251;28;20201;-87
2022/02/19 02:22:06;;;;;;;7.27;2.00;;;6.20;1.00;;;;;;5039205;28;20194;-88
2022/02/19 02:24:35;;;;;;;4.53;1.60;;;6.20;1.00;;;;;;5038795;28;20190;-91
2022/02/19 02:27:04;;;;;;;7.73;1.80;;;6.20;1.00;;;;;;5035530;28;20289;-89
2022/02/19 02:29:59;;;;;;;7.37;1.53;;;6.20;1.00;;;;;;5023126;28;20642;-91
2022/02/19 02:32:27;;;;;;;8.60;1.70;;;6.10;1.00;;;;;;5016714;28;20655;-91
2022/02/19 02:34:55;;;;;;;7.60;1.40;;;6.20;1.00;;;;;;5022133;28;20181;-91
2022/02/19 02:37:24;;;;;;;6.13;2.10;;;6.10;1.00;;;;;;5019981;28;20186;-90
2022/02/19 02:39:51;;;;;;;6.37;1.80;;;6.20;1.00;;;;;;5025279;28;20158;-90
2022/02/19 02:42:19;;;;;;;4.10;1.30;;;6.10;1.00;;;;;;5021532;28;20178;-90
2022/02/19 02:44:46;;;;;;;7.50;1.50;;;6.10;1.00;;;;;;5018654;28;20673;-91
2022/02/19 02:47:12;;;;;;;7.80;1.60;;;6.00;1.00;;;;;;5020675;28;20237;-91
2022/02/19 02:49:40;;;;;;;7.67;1.60;;;6.10;1.00;;;;;;5019905;28;20170;-92
2022/02/19 02:52:08;;;;;;;5.13;1.80;;;6.00;1.00;;;;;;5023317;28;20178;-90
2022/02/19 02:54:34;;;;;;;7.87;2.03;;;6.00;1.00;;;;;;5031475;28;20178;-91
2022/02/19 02:57:00;;;;;;;7.00;1.57;;;6.00;1.00;;;;;;5020522;28;20206;-91
2022/02/19 02:59:25;;;;;;;5.90;1.87;;;6.00;1.00;;;;;;5024144;28;20178;-88
2022/02/19 03:01:51;;;;;;;4.70;1.90;;;6.00;1.00;;;;;;5034058;28;20181;-88
2022/02/19 03:04:17;;;;;;;5.50;1.83;;;6.00;1.00;;;;;;5035527;28;20225;-87
2022/02/19 03:06:43;;;;;;;5.03;1.60;;;5.90;1.00;;;;;;5037099;28;20221;-88
2022/02/19 03:09:08;;;;;;;9.57;1.77;;;5.90;1.00;;;;;;5033009;28;20178;-91
2022/02/19 03:11:35;;;;;;;4.03;1.57;;;5.90;1.00;;;;;;5026070;28;20182;-91
2022/02/19 03:14:02;;;;;;;7.37;2.00;;;5.90;1.00;;;;;;5022891;28;20174;-91
2022/02/19 03:16:34;;;;;;;6.23;1.50;;;5.90;1.00;;;;;;5019760;28;20177;-91
2022/02/19 03:18:59;;;;;;;6.97;2.13;;;5.90;1.00;;;;;;5019143;28;20178;-92
2022/02/19 03:21:26;;;;;;;6.37;1.50;;;5.90;1.00;;;;;;5035081;28;20185;-91
2022/02/19 03:23:54;;;;;;;8.23;1.50;;;5.80;1.00;;;;;;5022217;28;20166;-92
2022/02/19 03:26:20;;;;;;;7.33;1.60;;;5.80;1.00;;;;;;5020104;28;20225;-90
2022/02/19 03:28:46;;;;;;;6.80;1.77;;;5.80;1.00;;;;;;5019225;28;20183;-91
2022/02/19 03:31:12;;;;;;;8.03;1.90;;;5.90;1.00;;;;;;5003816;28;20182;-91
2022/02/19 03:33:40;;;;;;;12.03;2.30;;;5.80;1.00;;;;;;5019014;28;20181;-91
2022/02/19 03:36:06;;;;;;;5.67;1.60;;;5.90;1.00;;;;;;5027438;28;20210;-91
2022/02/19 03:38:32;;;;;;;6.80;1.67;;;6.00;1.00;;;;;;5029671;28;20185;-90
2022/02/19 03:40:57;;;;;;;6.60;2.17;;;5.80;1.00;;;;;;5021259;28;20178;-91
2022/02/19 03:43:25;;;;;;;7.50;1.90;;;5.80;1.00;;;;;;5002369;28;20182;-91
2022/02/19 03:45:52;;;;;;;7.73;2.03;;;6.00;1.00;;;;;;5018882;28;20228;-90
2022/02/19 03:48:18;;;;;;;10.70;3.10;;;5.80;1.00;;;;;;5001910;28;20179;-90
2022/02/19 03:50:45;;;;;;;7.40;1.77;;;5.90;1.00;;;;;;5018798;28;20627;-91
2022/02/19 03:53:11;;;;;;;6.63;1.60;;;5.90;1.00;;;;;;5019235;28;20642;-93
2022/02/19 03:55:37;;;;;;;5.87;1.83;;;5.90;1.00;;;;;;5019595;28;20696;-91
2022/02/19 03:58:02;;;;;;;9.00;1.97;;;5.90;1.00;;;;;;5019181;28;20186;-89
2022/02/19 04:00:29;;;;;;;7.93;2.40;;;5.90;1.00;;;;;;5020562;28;20186;-90
2022/02/19 04:02:56;;;;;;;6.43;1.80;;;5.90;1.00;;;;;;5027193;28;20543;-92
2022/02/19 04:05:22;;;;;;;10.50;2.07;;;5.90;1.00;;;;;;5024202;28;20174;-92
2022/02/19 04:07:48;;;;;;;7.27;2.00;;;5.80;1.00;;;;;;5020292;28;20280;-91
2022/02/19 04:10:14;;;;;;;7.30;2.07;;;5.80;1.00;;;;;;5018852;28;20702;-92
2022/02/19 04:12:40;;;;;;;10.53;3.07;;;5.80;1.00;;;;;;5018407;28;20212;-91
2022/02/19 04:15:06;;;;;;;7.90;2.10;;;5.80;1.00;;;;;;5020373;28;20222;-92
2022/02/19 04:17:31;;;;;;;8.27;2.20;;;5.80;1.00;;;;;;5021357;28;20670;-90
2022/02/19 04:19:57;;;;;;;7.90;1.83;;;5.80;1.00;;;;;;5025194;28;20178;-91
2022/02/19 04:22:23;;;;;;;11.67;2.53;;;5.80;1.00;;;;;;5024917;28;20185;-92
2022/02/19 04:24:50;;;;;;;8.27;2.67;;;5.80;1.00;;;;;;5022413;28;20190;-90
2022/02/19 04:27:17;;;;;;;11.17;2.80;;;5.80;1.00;;;;;;5033042;28;20221;-90
2022/02/19 04:29:43;;;;;;;7.30;2.40;;;5.80;1.00;;;;;;5038229;28;20177;-92
2022/02/19 04:32:09;;;;;;;11.00;2.57;;;5.90;1.00;;;;;;5038576;28;20170;-90
2022/02/19 04:34:37;;;;;;;10.27;2.20;;;5.80;1.00;;;;;;5038899;28;20194;-91
2022/02/19 04:37:06;;;;;;;13.70;2.80;;;5.70;1.00;;;;;;5032300;28;20254;-92
2022/02/19 04:39:50;;;;;;;9.87;2.50;;;5.80;1.00;;;;;;5028359;28;20174;-92
2022/02/19 04:42:45;;;;;;;11.57;2.60;;;5.80;1.00;;;;;;5021876;28;20170;-91
2022/02/19 04:45:16;;;;;;;8.47;2.43;;;5.70;1.00;;;;;;5016865;28;20189;-91
2022/02/19 04:47:43;;;;;;;10.23;2.53;;;5.70;1.00;;;;;;5018378;28;20186;-90
2022/02/19 04:50:10;;;;;;;11.87;2.90;;;5.70;1.00;;;;;;5019348;28;20178;-91
2022/02/19 04:52:37;;;;;;;10.33;2.60;;;5.70;1.00;;;;;;5019496;28;20218;-90
2022/02/19 04:55:03;;;;;;;11.80;2.97;;;5.60;1.00;;;;;;5019804;28;20186;-90
2022/02/19 04:57:29;;;;;;;12.57;3.50;;;5.80;1.00;;;;;;5018719;28;20181;-90
2022/02/19 04:59:55;;;;;;;13.13;3.23;;;5.70;1.00;;;;;;5018290;28;20178;-90
2022/02/19 05:02:21;;;;;;;10.90;3.60;;;5.70;1.00;;;;;;5019414;28;20603;-89
2022/02/19 05:04:48;;;;;;;11.47;2.97;;;5.60;1.00;;;;;;5023354;28;20175;-92
2022/02/19 05:07:14;;;;;;;10.43;2.87;;;5.70;2.00;;;;;;5017303;28;20225;-91
2022/02/19 05:09:39;;;;;;;13.50;3.47;;;5.60;3.30;;;;;;5018023;28;20173;-92
2022/02/19 05:12:06;;;;;;;12.30;2.60;;;5.60;3.30;;;;;;5019564;28;20198;-92
2022/02/19 05:14:31;;;;;;;13.27;2.77;;;5.60;5.70;;;;;;5021355;28;20268;-90
2022/02/19 05:16:58;;;;;;;12.30;2.97;;;5.60;5.70;;;;;;5018507;28;20643;-90
2022/02/19 05:19:24;;;;;;;12.43;3.53;;;5.60;6.00;;;;;;5018758;28;20194;-90
2022/02/19 05:21:51;;;;;;;11.17;2.97;;;5.60;7.70;;;;;;5017746;28;20185;-91
2022/02/19 05:24:17;;;;;;;8.03;2.63;;;5.50;9.50;;;;;;5021019;28;20189;-90
2022/02/19 05:26:42;;;;;;;16.17;3.20;;;5.60;6.30;;;;;;5026256;28;20226;-89
2022/02/19 05:29:08;;;;;;;10.27;2.93;;;5.60;4.70;;;;;;5018178;28;20631;-91
2022/02/19 05:31:34;;;;;;;10.33;2.67;;;5.60;5.20;;;;;;5017872;28;20206;-91
2022/02/19 05:34:00;;;;;;;15.97;2.87;;;5.60;6.90;;;;;;5023034;28;20174;-88
2022/02/19 05:36:25;;;;;;;8.60;2.63;;;5.60;8.10;;;;;;5030386;28;20206;-87
2022/02/19 05:38:51;;;;;;;12.97;2.83;;;5.60;8.50;;;;;;5034520;28;20206;-90
2022/02/19 05:41:19;;;;;;;13.33;2.77;;;5.60;8.50;;;;;;5036602;28;20177;-90
2022/02/19 05:43:47;;;;;;;10.90;3.00;;;5.70;10.60;;;;;;5025491;28;20170;-89
2022/02/19 05:46:34;;;;;;;9.30;2.60;;;5.60;11.80;;;;;;5034979;28;20186;-88
2022/02/19 05:49:06;;;;;;;11.00;2.80;;;5.60;14.00;;;;;;5034135;28;20189;-91
2022/02/19 05:51:32;;;;;;;10.73;2.90;;;5.60;16.30;;;;;;5032583;28;20257;-90
2022/02/19 05:54:05;;;;;;;9.43;2.87;;;5.50;19.80;;;;;;5028003;28;20201;-90
2022/02/19 05:56:32;;;;;;;9.17;2.43;;;5.50;22.70;;;;;;5031695;28;20174;-90
2022/02/19 05:58:59;;;;;;;16.70;3.07;;;5.50;25.50;;;;;;5027166;28;20189;-91
2022/02/19 06:01:28;;;;;;;10.80;2.87;;;5.50;27.10;;;;;;5019150;28;20174;-92
2022/02/19 06:03:54;;;;;;;14.90;3.13;;;5.40;29.20;;;;;;5018210;28;20304;-92
2022/02/19 06:06:21;;;;;;;11.40;2.63;;;5.40;31.80;;;;;;5016632;28;20210;-92
2022/02/19 06:08:47;;;;;;;13.73;2.60;;;5.30;36.00;;;;;;5018462;28;20166;-91
2022/02/19 06:11:15;;;;;;;13.97;3.47;;;5.40;37.80;;;;;;5019222;28;20185;-91
2022/02/19 06:13:40;;;;;;;11.53;3.07;;;5.50;37.10;;;;;;5016819;28;20198;-92
2022/02/19 06:16:06;;;;;;;12.77;3.17;;;5.50;34.50;;;;;;5020500;28;20634;-91
2022/02/19 06:18:32;;;;;;;13.97;2.93;;;5.40;37.50;;;;;;5018713;28;20206;-91
2022/02/19 06:20:57;;;;;;;10.60;2.97;;;5.40;40.50;;;;;;5017782;28;20167;-92
2022/02/19 06:23:23;;;;;;;13.07;3.50;;;5.40;39.50;;;;;;5022583;28;20174;-92
2022/02/19 06:25:50;;;;;;;11.93;2.80;;;5.40;41.50;;;;;;5034654;28;20210;-92
2022/02/19 06:28:15;;;;;;;13.47;2.77;;;5.40;44.10;;;;;;5036227;28;20174;-92
2022/02/19 06:30:43;;;;;;;9.43;2.83;;;5.50;42.90;;;;;;5037357;28;20166;-90
2022/02/19 06:33:09;;;;;;;11.10;2.80;;;5.30;46.30;;;;;;5033038;28;20193;-93
2022/02/19 06:35:38;;;;;;;9.97;2.83;;;5.20;49.60;;;;;;5010119;28;20196;-89
2022/02/19 06:38:05;;;;;;;11.10;2.50;;;5.40;50.90;;;;;;5021214;28;20604;-90
2022/02/19 06:40:31;;;;;;;10.97;3.50;;;5.40;48.60;;;;;;5017460;28;20200;-91
2022/02/19 06:42:57;;;;;;;14.67;3.20;;;5.40;50.30;;;;;;5019932;28;20179;-92
2022/02/19 06:45:23;;;;;;;13.77;2.90;;;5.40;49.20;;;;;;5020328;28;20654;-92
2022/02/19 06:47:48;;;;;;;13.13;3.07;;;5.30;52.70;;;;;;5021767;28;20647;-92
2022/02/19 06:50:16;;;;;;;15.73;3.43;;;5.30;54.00;;;;;;5036452;28;20194;-90
2022/02/19 06:52:42;;;;;;;17.43;4.03;;;5.40;54.30;;;;;;5039124;28;20159;-89
2022/02/19 06:55:09;;;;;;;9.00;2.60;;;5.30;54.90;;;;;;5037992;28;20186;-90
2022/02/19 06:57:38;;;;;;;12.00;2.83;;;5.50;54.70;;;;;;5040943;28;20170;-89
2022/02/19 07:00:06;;;;;;;12.43;2.63;;;5.40;54.30;;;;;;5040683;28;20174;-88
2022/02/19 07:02:32;;;;;;;10.33;2.80;;;5.40;56.00;;;;;;5036643;28;20221;-91
2022/02/19 07:05:01;;;;;;;10.83;2.90;;;5.50;56.30;;;;;;5022832;28;20174;-91
2022/02/19 07:07:33;;;;;;;14.83;4.03;;;5.60;52.70;;;;;;5026950;28;20214;-92
2022/02/19 07:09:59;;;;;;;16.07;3.30;;;5.60;52.30;;;;;;5031929;28;20158;-90
2022/02/19 07:12:28;;;;;;;16.23;3.70;;;5.60;52.30;;;;;;5021485;28;20737;-93
2022/02/19 07:14:54;;;;;;;12.87;2.87;;;5.50;53.60;;;;;;5024800;28;20171;-91
2022/02/19 07:17:21;;;;;;;15.40;3.30;;;5.50;54.70;;;;;;5027977;28;20185;-91
2022/02/19 07:19:48;;;;;;;13.47;3.00;;;5.50;54.30;;;;;;5028155;28;20237;-91
2022/02/19 07:22:19;;;;;;;14.20;3.53;;;5.50;54.00;;;;;;5032975;28;20182;-92
2022/02/19 07:24:45;;;;;;;16.87;3.13;;;5.60;52.30;;;;;;5022372;28;20179;-93
2022/02/19 07:27:10;;;;;;;12.50;2.67;;;5.60;49.80;;;;;;5020480;28;20226;-91
2022/02/19 07:29:36;;;;;;;10.97;3.03;;;5.70;51.90;;;;;;5019959;28;20178;-93
2022/02/19 07:32:04;;;;;;;11.30;3.43;;;5.70;50.30;;;;;;5020574;28;20170;-92
2022/02/19 07:34:30;;;;;;;8.73;2.80;;;5.90;45.10;;;;;;5019075;28;20257;-92
2022/02/19 07:37:00;;;;;;;14.87;3.47;;;5.80;47.30;;;;;;5020440;28;20213;-89
2022/02/19 07:39:25;;;;;;;12.20;2.90;;;5.80;47.10;;;;;;5021487;28;20261;-91
2022/02/19 07:41:51;;;;;;;10.60;2.77;;;5.80;47.00;;;;;;5034351;28;20178;-90
2022/02/19 07:44:17;;;;;;;13.87;3.07;;;5.80;50.00;;;;;;5036433;28;20185;-88
2022/02/19 07:46:43;;;;;;;15.70;3.07;;;5.80;50.70;;;;;;5036938;28;20224;-92
2022/02/19 08:00:06;;;;;;;12.80;2.53;;;5.90;48.90;;;;;;5031148;28;20197;-92
2022/02/19 08:02:40;;;;;;;8.93;2.13;;;5.90;50.80;;;;;;5029610;28;20178;-91
2022/02/19 08:05:09;;;;;;;9.73;2.63;;;6.00;50.20;;;;;;5025105;28;20564;-92
2022/02/19 08:07:37;;;;;;;9.73;2.90;;;6.00;46.80;;;;;;5025149;28;20202;-91
2022/02/19 08:10:06;;;;;;;10.83;3.30;;;6.10;45.60;;;;;;5026163;28;20162;-90
2022/02/19 08:12:32;;;;;;;11.37;2.50;;;6.20;42.90;;;;;;5031660;28;20221;-88
2022/02/19 08:14:58;;;;;;;10.10;2.23;;;6.40;38.40;;;;;;5038150;28;20177;-91
2022/02/19 08:17:25;;;;;;;10.90;3.00;;;6.30;38.20;;;;;;5037665;28;20165;-89
2022/02/19 08:19:52;;;;;;;10.03;2.90;;;6.40;39.60;;;;;;5038508;28;20182;-92
2022/02/19 08:22:19;;;;;;;6.60;2.20;;;6.40;35.60;;;;;;5038076;28;20182;-89
2022/02/19 08:24:45;;;;;;;10.20;2.93;;;6.50;34.90;;;;;;5033407;28;20502;-92
2022/02/19 08:27:10;;;;;;;10.93;2.90;;;6.40;35.90;;;;;;5031192;28;20275;-87
2022/02/19 08:29:36;;;;;;;13.33;2.13;;;6.50;33.80;;;;;;5022037;28;20179;-90
2022/02/19 08:32:06;;;;;;;9.10;2.63;;;6.60;31.20;;;;;;5022455;28;20170;-89
2022/02/19 08:34:31;;;;;;;8.43;2.60;;;6.60;29.90;;;;;;5025254;28;20197;-88
2022/02/19 08:37:03;;;;;;;8.43;2.13;;;6.60;30.50;;;;;;5030404;28;20178;-89
2022/02/19 08:39:32;;;;;;;11.20;2.80;;;6.60;31.50;;;;;;5027945;28;20190;-88
2022/02/19 08:42:01;;;;;;;8.13;1.97;;;6.80;29.80;;;;;;5026980;28;20178;-88
2022/02/19 08:44:27;;;;;;;8.73;2.37;;;6.80;27.50;;;;;;5026001;28;20170;-87
2022/02/19 08:46:54;;;;;;;12.40;3.07;;;6.80;28.20;;;;;;5023884;28;20277;-87
2022/02/19 08:49:20;;;;;;;8.53;2.23;;;6.90;29.90;;;;;;5029988;28;20177;-86
2022/02/19 08:51:46;;;;;;;10.73;2.60;;;7.20;29.20;;;;;;5023010;28;20479;-86
2022/02/19 08:54:15;;;;;;;8.73;2.60;;;7.00;32.50;;;;;;5033189;28;20142;-86
2022/02/19 08:56:47;;;;;;;11.63;3.10;;;7.00;31.10;;;;;;5035302;28;20182;-88
2022/02/19 08:59:14;;;;;;;10.13;2.33;;;7.10;32.80;;;;;;5037677;28;20177;-89
2022/02/19 09:01:40;;;;;;;14.87;2.90;;;7.10;31.20;;;;;;5029593;28;20178;-89
2022/02/19 09:04:12;;;;;;;9.17;2.40;;;7.10;29.80;;;;;;5023549;28;20171;-89
2022/02/19 09:06:39;;;;;;;8.70;2.20;;;7.20;30.00;;;;;;5022365;28;20214;-86
2022/02/19 09:09:22;;;;;;;8.23;2.53;;;7.20;29.60;;;;;;5021211;28;20178;-88
2022/02/19 09:11:50;;;;;;;7.77;2.67;;;7.30;27.70;;;;;;5023626;28;20178;-90
2022/02/19 09:14:30;;;;;;;11.77;2.33;;;7.30;28.80;;;;;;5023589;28;20163;-93
2022/02/19 09:17:03;;;;;;;11.10;2.50;;;7.30;27.30;;;;;;5024640;28;20166;-91
2022/02/19 09:19:34;;;;;;;10.50;2.53;;;7.20;27.30;;;;;;5025450;28;20205;-91
2022/02/19 09:22:04;;;;;;;10.13;2.30;;;7.10;29.50;;;;;;5029732;28;20234;-92
2022/02/19 09:24:30;;;;;;;11.70;2.43;;;7.10;31.40;;;;;;5027383;28;20173;-91
2022/02/19 09:27:01;;;;;;;10.93;2.33;;;7.10;31.80;;;;;;5022327;28;20289;-90
2022/02/19 09:29:31;;;;;;;10.57;2.50;;;7.10;29.30;;;;;;5023835;28;20189;-91
2022/02/19 09:31:59;;;;;;;9.53;2.40;;;7.00;33.00;;;;;;5020892;28;20174;-90
2022/02/19 09:34:36;;;;;;;9.13;2.17;;;7.00;36.50;;;;;;5024202;28;20180;-86
2022/02/19 09:37:10;;;;;;;7.53;2.03;;;7.10;34.30;;;;;;5026446;28;20579;-90
2022/02/19 09:39:36;;;;;;;7.20;2.03;;;7.20;33.10;;;;;;5027225;28;20217;-89
2022/02/19 09:42:12;;;;;;;11.87;3.67;;;7.40;30.30;;;;;;5023342;28;20164;-91
2022/02/19 09:44:44;;;;;;;13.17;3.20;;;7.50;31.60;;;;;;5021589;28;20162;-90
2022/02/19 09:47:11;;;;;;;7.83;2.30;;;7.50;34.20;;;;;;5020615;28;20245;-90
2022/02/19 09:49:38;;;;;;;9.73;2.63;;;7.50;36.50;;;;;;5017367;28;20281;-90
2022/02/19 09:52:05;;;;;;;14.73;2.57;;;7.50;32.90;;;;;;5028327;28;20233;-91
2022/02/19 09:54:30;;;;;;;11.43;3.40;;;7.50;32.80;;;;;;5020357;28;20180;-89
2022/02/19 09:56:56;;;;;;;8.60;2.87;;;7.60;34.70;;;;;;5030520;28;20178;-89
2022/02/19 09:59:23;;;;;;;9.07;3.00;;;7.60;33.70;;;;;;5041312;28;20176;-90
2022/02/19 10:02:03;;;;;;;10.10;2.73;;;7.80;30.20;;;;;;5046678;28;20178;-92
2022/02/19 10:04:30;;;;;;;8.17;2.20;;;7.90;29.00;;;;;;5052463;28;20174;-89
2022/02/19 10:07:11;;;;;;;11.30;2.87;;;8.00;24.20;;;;;;5042605;28;20213;-89
2022/02/19 10:09:45;;;;;;;7.07;1.90;;;8.00;16.10;;;;;;5024568;28;20170;-89
2022/02/19 10:12:52;;;;;;;9.23;2.33;;;8.00;8.60;;;;;;5023602;28;20197;-91
2022/02/19 10:15:21;;;;;;;10.57;2.80;;;8.20;8.10;;;;;;5027917;28;20201;-88
2022/02/19 10:17:47;;;;;;;16.97;3.10;;;8.00;8.60;;;;;;5032105;28;20174;-90
2022/02/19 10:20:17;;;;;;;9.07;2.40;;;8.10;11.70;;;;;;5015193;28;20192;-92
2022/02/19 10:23:36;;;;;;;7.87;2.30;;;8.20;10.00;;;;;;5041756;28;20174;-92
2022/02/19 10:26:05;;;;;;;8.13;2.57;;;7.90;9.00;;;;;;5043851;28;20216;-92
2022/02/19 10:28:31;;;;;;;11.60;2.57;;;7.80;10.80;;;;;;5043117;28;20193;-89
2022/02/19 10:31:19;;;;;;;8.03;2.20;;;7.70;22.30;;;;;;5042179;28;20150;-89
2022/02/19 10:34:07;;;;;;;12.50;2.93;;;7.90;21.00;;;;;;5044158;28;20213;-92
2022/02/19 10:36:47;;;;;;;8.90;2.27;;;8.00;12.60;;;;;;5035307;28;20252;-91
2022/02/19 10:39:13;;;;;;;6.20;2.10;;;7.90;8.90;;;;;;5028537;28;20244;-90
2022/02/19 10:41:42;;;;;;;8.53;2.23;;;7.90;11.50;;;;;;5028457;28;20174;-92
2022/02/19 10:44:30;;;;;;;9.83;2.20;;;8.10;11.00;;;;;;5026845;28;20313;-91
2022/02/19 10:47:21;;;;;;;8.80;2.60;;;8.10;12.90;;;;;;5026645;28;20198;-92
2022/02/19 10:50:29;;;;;;;7.80;2.00;;;8.10;8.70;;;;;;5031030;28;20174;-93
2022/02/19 10:52:57;;;;;;;7.83;2.00;;;8.30;7.50;;;;;;5032966;28;20174;-93
2022/02/19 10:55:38;;;;;;;9.37;2.37;;;8.40;4.90;;;;;;5037652;28;20163;-93
2022/02/19 10:58:18;;;;;;;11.60;1.97;;;8.40;5.20;;;;;;5038981;28;20154;-95
2022/02/19 11:00:56;;;;;;;8.83;2.40;;;8.40;1.40;;;;;;5042447;28;20178;-94
2022/02/19 11:03:27;;;;;;;6.40;1.73;;;8.50;1.00;;;;;;5019328;28;20186;-93
2022/02/19 11:05:53;;;;;;;8.60;2.27;;;8.20;1.00;;;;;;5031868;28;20214;-92
2022/02/19 11:08:27;;;;;;;7.43;2.53;;;8.50;1.00;;;;;;5028145;28;20178;-95
2022/02/19 11:10:53;;;;;;;7.00;1.90;;;8.70;1.00;;;;;;5026627;28;20205;-94
2022/02/19 11:13:20;;;;;;;7.47;1.93;;;8.60;1.00;;;;;;5012386;28;20186;-94
2022/02/19 11:15:49;;;;;;;10.70;2.40;;;8.50;1.00;;;;;;5027486;28;20174;-92
2022/02/19 11:18:19;;;;;;;6.70;1.90;;;8.40;1.00;;;;;;5027099;28;20238;-90
2022/02/19 11:20:50;;;;;;;6.00;2.07;;;8.60;1.00;;;;;;5023780;28;20178;-94
2022/02/19 11:23:25;;;;;;;9.97;2.57;;;8.80;1.00;;;;;;5007064;28;20191;-91
2022/02/19 11:26:02;;;;;;;7.77;2.43;;;8.90;1.00;;;;;;5028812;28;20211;-94
2022/02/19 11:28:43;;;;;;;6.37;1.80;;;9.00;1.00;;;;;;5030469;28;20762;-91
2022/02/19 11:31:12;;;;;;;10.23;2.10;;;8.70;1.00;;;;;;5031192;28;20186;-91
2022/02/19 11:33:40;;;;;;;8.53;2.57;;;8.90;1.00;;;;;;5034746;28;20171;-91
2022/02/19 11:36:14;;;;;;;10.80;2.50;;;9.00;1.00;;;;;;5031262;28;20183;-92
2022/02/19 11:38:54;;;;;;;9.13;2.17;;;9.10;1.00;;;;;;5026496;28;20178;-93
2022/02/19 11:41:37;;;;;;;9.73;2.40;;;9.00;1.00;;;;;;5015013;28;20200;-92
2022/02/19 11:44:24;;;;;;;6.63;2.37;;;9.20;1.00;;;;;;5026039;28;20178;-93
2022/02/19 11:47:11;;;;;;;6.27;2.33;;;9.20;1.00;;;;;;5199568;22;20995;-92
2022/02/19 11:49:59;;;;;;;9.60;2.77;;;9.20;1.00;;;;;;5011521;28;20178;-91
2022/02/19 11:52:27;;;;;;;6.53;2.13;;;9.00;1.00;;;;;;5007988;28;20533;-91
2022/02/19 11:55:15;;;;;;;9.63;2.57;;;9.20;1.00;;;;;;5003503;28;20182;-90
2022/02/19 11:57:43;;;;;;;5.97;2.50;;;9.40;1.00;;;;;;5006722;28;20194;-89
2022/02/19 12:01:12;;;;;;;;;;;;;;;;;;;;;
2022/02/19 12:03:41;;;;;;;5.77;2.03;;;9.30;1.00;;;;;;5005080;28;20250;-88
2022/02/19 12:06:46;;;;;;;8.23;2.70;;;9.40;1.00;;;;;;5002897;28;20211;-93
2022/02/19 12:09:56;;;;;;;8.93;2.33;;;9.30;1.00;;;;;;5009387;28;20195;-92
2022/02/19 12:12:27;;;;;;;7.33;2.37;;;9.40;1.00;;;;;;4987226;28;20196;-91
2022/02/19 12:15:10;;;;;;;7.20;2.20;;;9.50;1.00;;;;;;4990571;28;20211;-93
2022/02/19 12:18:44;;;;;;;8.37;2.10;;;9.50;1.00;;;;;;4986586;28;20195;-91
2022/02/19 12:21:40;;;;;;;9.57;2.53;;;9.50;1.00;;;;;;4986964;28;20176;-92
2022/02/19 12:24:29;;;;;;;9.10;2.60;;;9.40;1.00;;;;;;4987284;28;20184;-93
2022/02/19 12:26:59;;;;;;;11.53;2.80;;;9.30;1.00;;;;;;4986847;28;20211;-92
2022/02/19 12:29:39;;;;;;;8.73;2.43;;;9.20;1.00;;;;;;4985727;28;20192;-91
2022/02/19 12:32:23;;;;;;;9.77;2.87;;;9.00;1.00;;;;;;4985840;28;20249;-90
2022/02/19 12:34:59;;;;;;;8.40;1.80;;;9.10;1.00;;;;;;4989703;28;20179;-90
2022/02/19 12:37:32;;;;;;;8.43;2.60;;;9.30;1.00;;;;;;4997029;28;20167;-88
2022/02/19 12:40:05;;;;;;;9.80;2.43;;;9.50;1.00;;;;;;4996988;28;20180;-91
2022/02/19 12:42:32;;;;;;;8.73;2.87;;;9.50;1.00;;;;;;4998064;28;20249;-91
2022/02/19 12:45:10;;;;;;;12.47;2.87;;;9.50;1.00;;;;;;4997506;28;20191;-92
2022/02/19 12:47:39;;;;;;;11.13;2.37;;;9.60;1.00;;;;;;4998114;28;20246;-92
2022/02/19 12:50:11;;;;;;;7.20;2.17;;;9.50;1.00;;;;;;4999149;28;20155;-90
2022/02/19 12:53:04;;;;;;;12.00;2.30;;;9.40;1.00;;;;;;4978713;28;20164;-88
2022/02/19 12:55:33;;;;;;;9.60;2.70;;;9.40;1.00;;;;;;4995736;28;20243;-90
2022/02/19 12:58:10;;;;;;;12.97;3.00;;;9.40;1.00;;;;;;4991242;28;20179;-91
2022/02/19 13:01:05;;;;;;;8.30;2.40;;;9.40;1.00;;;;;;4987894;28;20179;-91
2022/02/19 13:03:50;;;;;;;8.23;1.80;;;9.40;1.00;;;;;;4987914;28;20171;-91
2022/02/19 13:06:17;;;;;;;8.07;2.60;;;9.40;1.00;;;;;;4994307;28;20206;-90
2022/02/19 13:08:42;;;;;;;6.83;2.53;;;9.60;1.00;;;;;;5001471;28;20607;-91
2022/02/19 13:11:14;;;;;;;6.00;2.13;;;9.60;1.00;;;;;;5003870;28;20201;-94
2022/02/19 13:13:40;;;;;;;7.73;2.50;;;9.50;1.00;;;;;;5002356;28;20175;-88
2022/02/19 13:16:13;;;;;;;9.17;2.43;;;9.50;1.00;;;;;;5001935;28;20186;-95
2022/02/19 13:18:46;;;;;;;8.73;2.50;;;9.50;1.00;;;;;;5001641;28;20267;-90
2022/02/19 13:21:17;;;;;;;6.90;1.77;;;9.40;1.00;;;;;;5003929;28;20229;-89
2022/02/19 13:23:46;;;;;;;11.23;2.77;;;9.40;1.00;;;;;;4991966;28;20194;-89
2022/02/19 13:26:31;;;;;;;10.83;2.13;;;9.30;1.00;;;;;;5013317;28;20191;-91
2022/02/19 13:29:03;;;;;;;7.40;1.90;;;9.30;1.00;;;;;;5014669;28;20262;-88